createdAt,value
2023-02-28T00:54:58.368Z,26.97
2023-02-28T00:55:59.326Z,26.24
2023-02-28T00:56:59.311Z,26.14
2023-02-28T00:57:59.299Z,26.10
2023-02-28T00:58:59.290Z,26.04
2023-02-28T00:59:59.278Z,26.01
2023-02-28T01:00:59.275Z,25.95
2023-02-28T01:01:59.269Z,25.91
2023-02-28T01:02:59.258Z,25.93
2023-02-28T01:03:59.253Z,25.87
2023-02-28T01:04:59.247Z,25.87
2023-02-28T01:05:59.230Z,25.85
2023-02-28T01:06:59.225Z,25.86
2023-02-28T01:07:59.210Z,25.84
2023-02-28T01:08:59.204Z,25.84
2023-02-28T01:09:59.195Z,25.82
2023-02-28T01:10:59.212Z,25.79
2023-02-28T01:11:59.176Z,25.73
2023-02-28T01:12:59.183Z,25.78
2023-02-28T01:13:59.157Z,25.78
2023-02-28T01:14:59.153Z,25.79
2023-02-28T01:15:59.199Z,25.77
2023-02-28T01:16:59.138Z,25.77
2023-02-28T01:17:59.129Z,25.79
2023-02-28T01:18:59.111Z,25.84
2023-02-28T01:19:59.109Z,25.78
2023-02-28T01:20:59.089Z,25.73
2023-02-28T01:21:59.086Z,25.71
2023-02-28T01:22:59.080Z,25.69
2023-02-28T01:23:59.078Z,25.73
2023-02-28T01:24:59.061Z,25.68
2023-02-28T01:25:59.052Z,25.69
2023-02-28T01:26:59.067Z,25.66
2023-02-28T01:27:59.029Z,25.68
2023-02-28T01:28:59.030Z,25.71
2023-02-28T01:29:59.015Z,25.71
2023-02-28T01:30:59.016Z,25.69
2023-02-28T01:31:59.039Z,25.64
2023-02-28T01:32:58.991Z,25.64
2023-02-28T01:33:58.980Z,25.61
2023-02-28T01:34:58.972Z,25.63
2023-02-28T01:35:58.976Z,25.61
2023-02-28T01:36:58.953Z,25.61
2023-02-28T01:38:04.796Z,25.58
2023-02-28T01:38:58.934Z,25.58
2023-02-28T01:39:58.934Z,25.57
2023-02-28T01:40:59.910Z,25.58
2023-02-28T01:41:58.908Z,25.56
2023-02-28T01:42:58.919Z,25.58
2023-02-28T01:43:58.894Z,25.59
2023-02-28T01:44:58.876Z,25.54
2023-02-28T01:45:58.874Z,25.55
2023-02-28T01:46:58.862Z,25.52
2023-02-28T01:47:58.855Z,25.53
2023-02-28T01:48:58.842Z,25.51
2023-02-28T01:49:58.828Z,25.49
2023-02-28T01:50:58.841Z,25.49
2023-02-28T01:51:58.812Z,25.47
2023-02-28T01:52:58.805Z,25.50
2023-02-28T01:53:58.794Z,25.47
2023-02-28T01:54:58.797Z,25.45
2023-02-28T01:55:58.772Z,25.42
2023-02-28T01:56:58.768Z,25.39
2023-02-28T01:57:58.756Z,25.39
2023-02-28T01:58:58.781Z,25.41
2023-02-28T01:59:58.740Z,25.43
2023-02-28T02:00:58.735Z,25.43
2023-02-28T02:01:58.784Z,25.42
2023-02-28T02:02:58.765Z,25.45
2023-02-28T02:03:58.707Z,25.46
2023-02-28T02:04:58.692Z,25.41
2023-02-28T02:05:58.689Z,25.37
2023-02-28T02:06:58.676Z,25.36
2023-02-28T02:07:58.677Z,25.36
2023-02-28T02:08:58.658Z,25.34
2023-02-28T02:09:58.649Z,25.32
2023-02-28T02:10:58.640Z,25.36
2023-02-28T02:11:58.637Z,25.34
2023-02-28T02:12:58.627Z,25.31
2023-02-28T02:13:58.614Z,25.29
2023-02-28T02:14:58.635Z,25.27
2023-02-28T02:15:58.637Z,25.26
2023-02-28T02:16:58.591Z,25.29
2023-02-28T02:17:58.577Z,25.28
2023-02-28T02:18:58.569Z,25.29
2023-02-28T02:19:58.557Z,25.27
2023-02-28T02:20:58.564Z,25.28
2023-02-28T02:21:58.552Z,25.26
2023-02-28T02:22:58.544Z,25.26
2023-02-28T02:23:58.526Z,25.25
2023-02-28T02:24:58.517Z,25.26
2023-02-28T02:25:58.506Z,25.24
2023-02-28T02:26:58.498Z,25.24
2023-02-28T02:27:58.488Z,25.23
2023-02-28T02:28:58.478Z,25.24
2023-02-28T02:29:58.476Z,25.22
2023-02-28T02:30:58.575Z,25.21
2023-02-28T02:31:58.518Z,25.19
2023-02-28T02:32:58.445Z,25.18
2023-02-28T02:33:58.436Z,25.20
2023-02-28T02:34:58.437Z,25.16
2023-02-28T02:35:58.469Z,25.17
2023-02-28T02:36:58.408Z,25.16
2023-02-28T02:37:58.413Z,25.18
2023-02-28T02:38:58.394Z,25.17
2023-02-28T02:39:58.384Z,25.14
2023-02-28T02:40:58.376Z,25.15
2023-02-28T02:41:58.364Z,25.16
2023-02-28T02:42:58.361Z,25.16
2023-02-28T02:43:58.349Z,25.14
2023-02-28T02:44:58.336Z,25.14
2023-02-28T02:45:58.331Z,25.16
2023-02-28T02:46:58.373Z,25.13
2023-02-28T02:47:58.308Z,25.09
2023-02-28T02:48:58.303Z,25.10
2023-02-28T02:50:58.284Z,25.08
2023-02-28T02:51:58.279Z,25.07
2023-02-28T02:52:58.270Z,25.09
2023-02-28T02:53:58.262Z,25.09
2023-02-28T02:54:58.246Z,25.08
2023-02-28T02:55:58.238Z,25.07
2023-02-28T02:56:58.229Z,25.09
2023-02-28T02:57:58.224Z,25.06
2023-02-28T02:58:58.212Z,25.09
2023-02-28T03:01:58.201Z,25.05
2023-02-28T03:02:58.205Z,25.02
2023-02-28T03:03:58.198Z,25.02
2023-02-28T03:04:58.170Z,25.03
2023-02-28T03:05:58.149Z,25.02
2023-02-28T03:07:58.148Z,25.01
2023-02-28T03:08:58.128Z,25.02
2023-02-28T03:09:58.109Z,25.00
2023-02-28T03:10:58.107Z,24.98
2023-02-28T03:11:58.103Z,24.98
2023-02-28T03:12:58.097Z,25.00
2023-02-28T03:13:58.084Z,24.96
2023-02-28T03:14:58.082Z,24.96
2023-02-28T03:15:58.095Z,24.97
2023-02-28T03:17:58.042Z,24.93
2023-02-28T03:18:58.059Z,24.93
2023-02-28T03:19:58.037Z,24.94
2023-02-28T03:20:58.019Z,24.95
2023-02-28T03:21:58.011Z,24.92
2023-02-28T03:22:58.002Z,24.87
2023-02-28T03:23:57.993Z,24.91
2023-02-28T03:24:58.004Z,24.90
2023-02-28T03:25:57.992Z,24.91
2023-02-28T03:26:57.968Z,24.88
2023-02-28T03:27:57.976Z,24.88
2023-02-28T03:28:57.955Z,24.89
2023-02-28T03:29:57.945Z,24.90
2023-02-28T03:30:57.938Z,24.92
2023-02-28T03:31:58.069Z,24.87
2023-02-28T03:32:57.914Z,24.88
2023-02-28T03:33:57.901Z,24.85
2023-02-28T03:34:57.922Z,24.82
2023-02-28T03:35:57.931Z,24.83
2023-02-28T03:36:57.908Z,24.83
2023-02-28T03:37:57.877Z,24.81
2023-02-28T03:38:57.857Z,24.81
2023-02-28T03:39:57.855Z,24.80
2023-02-28T03:40:57.839Z,24.79
2023-02-28T03:41:57.835Z,24.79
2023-02-28T03:42:57.826Z,24.80
2023-02-28T03:43:57.825Z,24.77
2023-02-28T03:44:57.810Z,24.79
2023-02-28T03:45:57.854Z,24.81
2023-02-28T03:46:57.801Z,24.79
2023-02-28T03:47:57.780Z,24.81
2023-02-28T03:48:57.770Z,24.79
2023-02-28T03:49:57.766Z,24.77
2023-02-28T03:50:57.783Z,24.76
2023-02-28T03:51:57.746Z,24.75
2023-02-28T03:52:57.750Z,24.72
2023-02-28T03:53:57.725Z,24.72
2023-02-28T03:54:57.720Z,24.73
2023-02-28T03:55:57.705Z,24.72
2023-02-28T03:56:57.698Z,24.72
2023-02-28T03:57:57.771Z,24.72
2023-02-28T03:58:57.685Z,24.71
2023-02-28T03:59:57.676Z,24.71
2023-02-28T04:00:57.664Z,24.66
2023-02-28T04:01:57.700Z,24.68
2023-02-28T04:02:57.644Z,24.68
2023-02-28T04:03:57.647Z,24.67
2023-02-28T04:04:57.631Z,24.67
2023-02-28T04:05:57.621Z,24.69
2023-02-28T04:06:57.684Z,24.66
2023-02-28T04:07:57.603Z,24.65
2023-02-28T04:08:57.599Z,24.63
2023-02-28T04:09:57.584Z,24.63
2023-02-28T04:10:57.583Z,24.64
2023-02-28T04:11:57.573Z,24.63
2023-02-28T04:12:57.558Z,24.59
2023-02-28T04:13:57.552Z,24.59
2023-02-28T04:14:57.569Z,24.60
2023-02-28T05:14:57.998Z,24.32
2023-02-28T07:03:56.021Z,26.64
2023-02-28T07:04:57.065Z,26.85
2023-02-28T07:57:55.590Z,29.56
2023-02-28T08:16:55.353Z,29.22
2023-02-28T08:49:55.115Z,29.70
2023-02-28T08:51:06.413Z,29.85
2023-02-28T09:02:55.086Z,30.92
2023-02-28T11:51:53.379Z,32.75
2023-02-28T20:58:48.432Z,28.14
2023-02-28T20:59:48.433Z,28.17
2023-02-28T21:00:48.416Z,28.15
2023-02-28T21:01:48.577Z,28.18
2023-02-28T21:02:48.452Z,28.14
2023-02-28T21:03:48.391Z,28.14
2023-02-28T21:04:48.389Z,28.15
2023-02-28T21:05:48.374Z,28.20
2023-02-28T21:06:48.378Z,28.14
2023-02-28T21:07:48.353Z,28.15
2023-02-28T21:08:48.389Z,28.13
2023-02-28T21:09:48.338Z,28.11
2023-02-28T21:10:48.362Z,28.12
2023-02-28T21:11:48.326Z,28.13
2023-02-28T21:12:48.312Z,28.12
2023-02-28T21:13:48.308Z,28.10
2023-02-28T21:14:48.297Z,28.06
2023-02-28T21:15:48.341Z,28.07
2023-02-28T21:16:48.278Z,28.09
2023-02-28T21:17:48.271Z,28.09
2023-02-28T21:18:48.259Z,28.08
2023-02-28T21:19:48.256Z,28.06
2023-02-28T21:20:48.244Z,28.07
2023-02-28T21:21:48.313Z,28.07
2023-02-28T21:22:48.223Z,28.03
2023-02-28T21:23:48.218Z,28.05
2023-02-28T21:24:48.213Z,28.01
2023-02-28T21:25:48.200Z,28.02
2023-02-28T21:26:48.211Z,27.97
2023-02-28T21:27:48.200Z,27.98
2023-02-28T21:28:48.170Z,27.99
2023-02-28T21:29:48.167Z,28.02
2023-02-28T21:30:48.197Z,28.01
2023-02-28T21:31:48.195Z,27.97
2023-02-28T21:32:48.134Z,27.94
2023-02-28T21:33:48.122Z,27.91
2023-02-28T21:34:48.122Z,27.92
2023-02-28T21:35:48.137Z,27.93
2023-02-28T21:36:48.101Z,27.96
2023-02-28T21:37:48.088Z,27.94
2023-02-28T21:38:48.081Z,27.97
2023-02-28T21:39:48.071Z,27.99
2023-02-28T21:40:48.065Z,27.95
2023-02-28T21:41:48.061Z,27.94
2023-02-28T21:42:48.066Z,27.91
2023-02-28T21:43:48.034Z,27.89
2023-02-28T21:44:48.029Z,27.91
2023-02-28T21:45:48.018Z,27.86
2023-02-28T21:46:48.120Z,27.84
2023-02-28T21:47:48.006Z,27.82
2023-02-28T21:48:47.986Z,27.85
2023-02-28T21:49:47.981Z,27.82
2023-02-28T21:50:47.969Z,27.82
2023-02-28T21:51:47.977Z,27.83
2023-02-28T21:52:47.954Z,27.82
2023-02-28T21:53:47.943Z,27.87
2023-02-28T21:54:47.937Z,27.83
2023-02-28T21:55:47.921Z,27.85
2023-02-28T21:56:47.914Z,27.87
2023-02-28T21:57:47.912Z,27.86
2023-02-28T21:58:47.977Z,27.84
2023-02-28T21:59:47.888Z,27.83
2023-02-28T22:00:47.883Z,27.78
2023-02-28T22:01:47.888Z,27.76
2023-02-28T22:02:47.936Z,27.81
2023-02-28T22:03:47.851Z,27.82
2023-02-28T22:04:47.879Z,27.85
2023-02-28T22:05:47.836Z,27.84
2023-02-28T22:06:47.834Z,27.80
2023-02-28T22:07:47.825Z,27.76
2023-02-28T22:08:47.805Z,27.79
2023-02-28T22:09:47.802Z,27.81
2023-02-28T22:10:47.790Z,27.77
2023-02-28T22:11:47.782Z,27.78
2023-02-28T22:12:47.774Z,27.77
2023-02-28T22:13:47.767Z,27.79
2023-02-28T22:14:47.776Z,27.77
2023-02-28T22:15:47.816Z,27.73
2023-02-28T22:16:53.753Z,27.73
2023-02-28T22:17:47.721Z,27.68
2023-02-28T22:18:47.713Z,27.70
2023-02-28T22:19:47.704Z,27.70
2023-02-28T22:20:47.694Z,27.69
2023-02-28T22:21:47.866Z,27.68
2023-02-28T22:22:47.679Z,27.66
2023-02-28T22:23:47.669Z,27.66
2023-02-28T22:24:47.664Z,27.69
2023-02-28T22:25:47.651Z,27.71
2023-02-28T22:26:47.648Z,27.71
2023-02-28T22:27:47.637Z,27.63
2023-02-28T22:28:47.620Z,27.63
2023-02-28T22:29:48.736Z,27.63
2023-02-28T22:30:47.621Z,27.62
2023-02-28T22:31:47.787Z,27.66
2023-02-28T22:32:47.581Z,27.66
2023-02-28T22:33:47.580Z,27.69
2023-02-28T22:34:47.567Z,27.70
2023-02-28T22:35:47.666Z,27.70
2023-02-28T22:36:47.560Z,27.62
2023-02-28T22:37:47.537Z,27.61
